createdAt,value
2019-02-17T00:01:40.858Z,280.40
2019-02-17T00:04:12.139Z,301.37
2019-02-17T00:06:43.461Z,342.23
2019-02-17T00:09:14.739Z,316.07
2019-02-17T00:11:46.050Z,314.87
2019-02-17T00:14:17.458Z,341.83
2019-02-17T00:16:48.777Z,319.30
2019-02-17T00:19:20.142Z,294.60
2019-02-17T00:21:51.454Z,290.80
2019-02-17T00:24:22.747Z,303.83
2019-02-17T00:26:53.967Z,287.43
2019-02-17T00:29:25.297Z,275.73
2019-02-17T00:31:56.733Z,261.80
2019-02-17T00:34:28.100Z,223.13
2019-02-17T00:36:59.514Z,257.47
2019-02-17T00:39:30.823Z,286.47
2019-02-17T00:42:02.194Z,271.03
2019-02-17T00:44:33.522Z,319.70
2019-02-17T00:47:04.824Z,265.67
2019-02-17T00:49:36.217Z,262.63
2019-02-17T00:52:07.628Z,227.13
2019-02-17T00:54:38.927Z,241.23
2019-02-17T00:57:10.226Z,233.93
2019-02-17T00:59:41.638Z,239.27
2019-02-17T01:02:13.069Z,297.07
2019-02-17T01:04:44.402Z,244.47
2019-02-17T01:07:15.832Z,235.60
2019-02-17T01:09:47.116Z,234.53
2019-02-17T01:12:18.456Z,262.07
2019-02-17T01:14:51.106Z,244.77
2019-02-17T01:17:22.476Z,250.57
2019-02-17T01:19:53.845Z,289.73
2019-02-17T01:22:25.152Z,289.70
2019-02-17T01:24:56.434Z,260.37
2019-02-17T01:27:27.864Z,302.03
2019-02-17T01:29:59.162Z,351.30
2019-02-17T01:32:30.516Z,296.87
2019-02-17T01:35:01.905Z,263.67
2019-02-17T01:37:33.211Z,262.50
2019-02-17T01:40:07.151Z,237.30
2019-02-17T01:42:39.863Z,220.63
2019-02-17T01:45:11.462Z,220.10
2019-02-17T01:47:42.896Z,198.60
2019-02-17T01:50:14.663Z,187.33
2019-02-17T01:52:46.094Z,183.47
2019-02-17T01:55:17.380Z,202.90
2019-02-17T01:57:48.792Z,234.33
2019-02-17T02:00:20.115Z,216.60
2019-02-17T02:02:51.618Z,210.63
2019-02-17T02:05:23.001Z,223.97
2019-02-17T02:07:54.342Z,211.97
2019-02-17T02:10:25.642Z,215.70
2019-02-17T02:12:56.922Z,198.00
2019-02-17T02:15:28.175Z,202.10
2019-02-17T02:17:59.534Z,213.43
2019-02-17T02:20:30.994Z,207.77
2019-02-17T02:23:02.329Z,202.83
2019-02-17T02:25:33.603Z,230.73
2019-02-17T02:28:04.912Z,231.23
2019-02-17T02:30:36.286Z,206.37
2019-02-17T02:33:07.598Z,206.23
2019-02-17T02:35:38.962Z,183.10
2019-02-17T02:38:10.279Z,173.87
2019-02-17T02:40:41.689Z,174.93
2019-02-17T02:43:13.011Z,181.07
2019-02-17T02:45:44.281Z,192.20
2019-02-17T02:48:16.039Z,192.07
2019-02-17T02:50:47.429Z,197.90
2019-02-17T02:53:18.858Z,192.87
2019-02-17T02:55:50.279Z,208.57
2019-02-17T02:58:21.601Z,206.33
2019-02-17T03:00:53.017Z,210.17
2019-02-17T03:03:24.470Z,204.77
2019-02-17T03:06:09.439Z,200.70
2019-02-17T03:08:40.811Z,193.33
2019-02-17T03:11:12.030Z,193.40
2019-02-17T03:13:43.454Z,189.40
2019-02-17T03:16:14.847Z,201.63
2019-02-17T03:18:46.157Z,198.47
2019-02-17T03:21:17.423Z,203.23
2019-02-17T03:23:48.872Z,203.33
2019-02-17T03:26:23.335Z,202.40
2019-02-17T03:28:54.750Z,195.00
2019-02-17T03:31:26.026Z,190.90
2019-02-17T03:33:57.486Z,190.03
2019-02-17T03:36:28.744Z,187.53
2019-02-17T03:39:00.159Z,178.80
2019-02-17T03:41:33.257Z,179.67
2019-02-17T03:44:05.861Z,197.90
2019-02-17T03:46:37.270Z,177.50
2019-02-17T03:49:08.726Z,162.27
2019-02-17T03:54:37.278Z,161.13
2019-02-17T03:57:08.558Z,165.97
2019-02-17T03:59:40.002Z,169.73
2019-02-17T04:02:11.391Z,171.40
2019-02-17T04:04:42.772Z,169.00
2019-02-17T04:07:14.086Z,192.17
2019-02-17T04:09:45.486Z,196.47
2019-02-17T04:12:16.881Z,185.43
2019-02-17T04:14:48.233Z,186.60
2019-02-17T04:17:20.189Z,150.53
2019-02-17T04:19:57.453Z,180.77
2019-02-17T04:22:29.138Z,163.83
2019-02-17T04:25:04.165Z,174.63
2019-02-17T04:27:39.752Z,165.77
2019-02-17T04:30:13.067Z,183.50
2019-02-17T04:32:44.362Z,202.27
2019-02-17T04:35:15.787Z,194.53
2019-02-17T04:37:47.114Z,188.00
2019-02-17T04:40:18.947Z,179.53
2019-02-17T04:42:50.358Z,183.97
2019-02-17T04:45:22.306Z,170.60
2019-02-17T04:47:53.713Z,155.20
2019-02-17T04:50:25.154Z,141.87
2019-02-17T04:52:56.461Z,134.87
2019-02-17T04:55:30.451Z,149.93
2019-02-17T04:58:02.658Z,183.77
2019-02-17T05:00:40.309Z,208.07
2019-02-17T05:03:07.176Z,202.80
2019-02-17T05:05:38.667Z,183.07
2019-02-17T05:08:12.137Z,174.13
2019-02-17T05:10:43.689Z,180.57
2019-02-17T05:13:15.098Z,129.30
2019-02-17T05:15:46.583Z,155.03
2019-02-17T05:18:17.883Z,123.37
2019-02-17T05:20:49.280Z,125.60
2019-02-17T05:23:20.560Z,157.93
2019-02-17T05:25:51.986Z,138.03
2019-02-17T05:28:23.371Z,134.07
2019-02-17T05:30:54.790Z,145.10
2019-02-17T05:33:26.068Z,139.57
2019-02-17T05:35:57.611Z,138.70
2019-02-17T05:38:29.011Z,121.80
2019-02-17T05:41:00.275Z,114.87
2019-02-17T05:43:31.659Z,116.27
2019-02-17T05:46:02.988Z,122.70
2019-02-17T05:48:34.350Z,129.37
2019-02-17T05:51:36.223Z,119.17
2019-02-17T05:53:50.038Z,99.17
2019-02-17T05:56:21.457Z,96.17
2019-02-17T05:58:52.709Z,89.97
2019-02-17T06:01:24.037Z,91.90
2019-02-17T06:03:55.310Z,89.63
2019-02-17T06:06:28.001Z,110.00
2019-02-17T06:08:59.390Z,128.40
2019-02-17T06:11:30.845Z,127.40
2019-02-17T06:14:02.105Z,118.50
2019-02-17T06:16:33.433Z,92.57
2019-02-17T06:19:04.714Z,98.57
2019-02-17T06:21:36.061Z,102.13
2019-02-17T06:24:07.441Z,103.50
2019-02-17T06:26:38.883Z,105.77
2019-02-17T06:29:10.180Z,75.97
2019-02-17T06:31:41.614Z,81.40
2019-02-17T06:34:13.000Z,87.60
2019-02-17T06:36:44.447Z,91.27
2019-02-17T06:39:17.071Z,127.80
2019-02-17T06:41:48.825Z,153.80
2019-02-17T06:44:21.882Z,170.77
2019-02-17T06:46:56.110Z,142.77
2019-02-17T06:49:27.519Z,144.93
2019-02-17T06:51:58.759Z,138.83
2019-02-17T06:54:30.163Z,137.93
2019-02-17T06:57:03.124Z,126.80
2019-02-17T06:59:34.443Z,133.87
2019-02-17T07:02:05.769Z,140.33
2019-02-17T07:04:41.737Z,145.63
2019-02-17T07:07:13.321Z,123.53
2019-02-17T07:09:45.362Z,107.17
2019-02-17T07:12:16.900Z,104.40
2019-02-17T07:14:48.441Z,97.80
2019-02-17T07:17:25.499Z,92.43
2019-02-17T07:19:58.954Z,75.70
2019-02-17T07:22:30.711Z,75.70
2019-02-17T07:25:05.297Z,70.97
2019-02-17T07:27:36.937Z,74.80
2019-02-17T07:30:08.194Z,72.27
2019-02-17T07:32:39.538Z,67.23
2019-02-17T07:35:10.823Z,63.13
2019-02-17T07:37:42.129Z,61.47
2019-02-17T07:40:13.422Z,60.53
2019-02-17T07:42:44.767Z,63.30
2019-02-17T07:45:16.038Z,65.37
2019-02-17T07:47:47.359Z,65.63
2019-02-17T07:50:18.628Z,65.57
2019-02-17T07:52:50.071Z,64.23
2019-02-17T07:55:21.434Z,68.63
2019-02-17T07:57:52.853Z,73.33
2019-02-17T08:00:24.087Z,75.13
2019-02-17T08:02:55.484Z,78.60
2019-02-17T08:05:26.844Z,86.97
2019-02-17T08:08:01.022Z,89.03
2019-02-17T08:10:32.390Z,87.37
2019-02-17T08:13:03.810Z,80.97
2019-02-17T08:15:35.082Z,76.87
2019-02-17T08:18:06.506Z,80.67
2019-02-17T08:20:37.862Z,79.57
2019-02-17T08:23:09.173Z,77.50
2019-02-17T08:25:42.027Z,76.87
2019-02-17T08:28:13.450Z,72.03
2019-02-17T08:30:44.918Z,72.97
2019-02-17T08:36:06.638Z,70.97
2019-02-17T08:38:38.098Z,75.77
2019-02-17T08:41:09.411Z,75.37
2019-02-17T08:43:42.198Z,81.50
2019-02-17T08:46:26.397Z,74.30
2019-02-17T08:48:57.708Z,59.77
2019-02-17T08:51:28.991Z,64.50
2019-02-17T08:54:00.320Z,66.43
2019-02-17T08:56:31.566Z,60.03
2019-02-17T08:59:02.894Z,55.87
2019-02-17T09:01:34.270Z,47.23
2019-02-17T09:04:06.950Z,41.47
2019-02-17T09:06:38.286Z,31.17
2019-02-17T09:09:09.632Z,39.60
2019-02-17T09:11:41.061Z,34.87
2019-02-17T09:14:12.360Z,33.37
2019-02-17T09:16:43.652Z,31.30
2019-02-17T09:19:15.127Z,33.50
2019-02-17T09:21:46.382Z,34.07
2019-02-17T09:24:17.853Z,31.70
2019-02-17T09:26:49.086Z,33.67
2019-02-17T09:29:20.531Z,28.80
2019-02-17T09:31:51.892Z,29.40
2019-02-17T09:34:23.212Z,33.73
2019-02-17T09:36:54.573Z,30.93
2019-02-17T09:39:27.275Z,30.90
2019-02-17T09:41:58.596Z,34.53
2019-02-17T09:44:29.922Z,29.40
2019-02-17T09:47:01.281Z,25.40
2019-02-17T09:49:32.585Z,23.70
2019-02-17T09:52:03.850Z,31.27
2019-02-17T09:54:35.174Z,24.67
2019-02-17T09:57:13.922Z,25.82
2019-02-17T09:59:45.351Z,29.18
2019-02-17T10:02:25.996Z,23.12
2019-02-17T10:04:49.787Z,26.62
2019-02-17T10:07:22.654Z,28.92
2019-02-17T10:09:54.099Z,25.50
2019-02-17T10:12:25.443Z,26.48
2019-02-17T10:14:58.103Z,22.80
2019-02-17T10:17:29.402Z,25.88
2019-02-17T10:20:00.769Z,23.80
2019-02-17T10:22:32.050Z,25.65
2019-02-17T10:25:03.519Z,18.57
2019-02-17T10:27:34.811Z,23.98
2019-02-17T10:30:10.540Z,26.05
2019-02-17T10:32:44.370Z,24.30
2019-02-17T10:35:15.796Z,15.83
2019-02-17T10:37:47.219Z,16.52
2019-02-17T10:40:20.175Z,21.15
2019-02-17T10:42:52.253Z,20.05
2019-02-17T10:45:23.547Z,20.72
2019-02-17T10:47:57.301Z,21.95
2019-02-17T10:50:28.851Z,21.70
2019-02-17T10:53:00.830Z,20.17
2019-02-17T10:55:33.111Z,22.32
2019-02-17T10:58:05.353Z,22.22
2019-02-17T11:00:36.777Z,18.77
2019-02-17T11:03:08.549Z,18.92
2019-02-17T11:05:41.274Z,18.70
2019-02-17T11:08:14.376Z,21.35
2019-02-17T11:10:48.157Z,20.48
2019-02-17T11:13:19.672Z,19.12
2019-02-17T11:15:51.506Z,20.70
2019-02-17T11:18:24.192Z,20.80
2019-02-17T11:20:55.651Z,21.68
2019-02-17T11:23:27.804Z,18.50
2019-02-17T11:26:00.585Z,18.57
2019-02-17T11:28:32.265Z,19.27
2019-02-17T11:31:03.536Z,22.27
2019-02-17T11:33:36.179Z,20.20
2019-02-17T11:36:08.915Z,21.60
2019-02-17T11:38:40.191Z,16.55
2019-02-17T11:41:12.649Z,22.37
2019-02-17T11:43:44.179Z,21.23
2019-02-17T11:46:15.612Z,20.52
2019-02-17T11:48:47.024Z,21.68
2019-02-17T11:51:18.938Z,22.15
2019-02-17T11:53:53.650Z,18.57
2019-02-17T11:56:26.292Z,21.02
2019-02-17T11:58:57.701Z,20.92
2019-02-17T12:01:29.947Z,20.65
2019-02-17T12:04:03.003Z,20.15
2019-02-17T12:06:36.184Z,17.73
2019-02-17T12:09:08.803Z,14.80
2019-02-17T12:11:43.065Z,20.68
2019-02-17T12:14:18.057Z,17.27
2019-02-17T12:16:49.479Z,18.98
2019-02-17T12:19:20.849Z,19.85
2019-02-17T12:21:55.317Z,18.75
2019-02-17T12:24:28.405Z,18.50
2019-02-17T12:27:05.371Z,18.82
2019-02-17T12:29:42.298Z,19.80
2019-02-17T12:32:14.014Z,19.05
2019-02-17T12:34:45.354Z,19.73
2019-02-17T12:37:16.602Z,18.20
2019-02-17T12:39:51.803Z,17.67
2019-02-17T12:42:23.106Z,20.17
2019-02-17T12:44:56.970Z,17.57
2019-02-17T12:47:27.441Z,19.57
2019-02-17T12:49:58.791Z,16.10
2019-02-17T12:52:30.101Z,18.87
2019-02-17T12:55:01.373Z,17.00
2019-02-17T12:57:32.655Z,17.25
2019-02-17T13:00:06.109Z,16.95
2019-02-17T13:02:37.387Z,17.50
2019-02-17T13:05:09.636Z,17.62
2019-02-17T13:07:42.737Z,18.15
2019-02-17T13:10:15.712Z,17.40
2019-02-17T13:12:47.000Z,19.23
2019-02-17T13:15:18.256Z,16.35
2019-02-17T13:17:49.513Z,17.10
2019-02-17T13:20:20.736Z,15.25
2019-02-17T13:22:51.894Z,17.92
2019-02-17T13:25:24.512Z,19.23
2019-02-17T13:27:57.103Z,19.05
2019-02-17T13:30:28.247Z,17.32
2019-02-17T13:32:59.857Z,19.00
2019-02-17T13:35:31.139Z,21.30
2019-02-17T13:38:04.010Z,22.58
2019-02-17T13:40:35.451Z,18.55
2019-02-17T13:43:06.821Z,19.65
2019-02-17T13:45:38.012Z,19.52
2019-02-17T13:48:09.361Z,22.27
2019-02-17T13:50:41.214Z,20.32
2019-02-17T13:53:14.260Z,20.05
2019-02-17T13:55:46.533Z,18.75
2019-02-17T13:58:20.119Z,18.42
2019-02-17T14:00:53.514Z,19.90
2019-02-17T14:03:27.835Z,20.40
2019-02-17T14:06:01.381Z,19.25
2019-02-17T14:08:33.693Z,19.80
2019-02-17T14:11:04.951Z,18.90
2019-02-17T14:13:36.231Z,19.05
2019-02-17T14:16:07.612Z,16.65
2019-02-17T14:18:40.151Z,18.40
2019-02-17T14:21:13.940Z,20.40
2019-02-17T14:23:45.350Z,24.85
2019-02-17T14:26:16.520Z,21.25
2019-02-17T14:28:50.182Z,18.92
2019-02-17T14:31:22.310Z,23.73
2019-02-17T14:33:58.556Z,20.75
2019-02-17T14:36:29.321Z,22.22
2019-02-17T14:39:01.154Z,19.00
2019-02-17T14:41:34.411Z,20.70
2019-02-17T14:44:07.006Z,20.27
2019-02-17T14:46:39.723Z,20.57
2019-02-17T14:49:11.262Z,19.75
2019-02-17T14:51:42.586Z,25.77
2019-02-17T14:54:13.932Z,23.75
2019-02-17T14:56:45.611Z,21.77
2019-02-17T14:59:17.366Z,22.55
2019-02-17T15:01:49.351Z,20.30
2019-02-17T15:04:22.924Z,23.00
2019-02-17T15:06:55.481Z,23.27
2019-02-17T15:09:28.165Z,21.95
2019-02-17T15:11:59.967Z,26.75
2019-02-17T15:14:32.206Z,26.40
2019-02-17T15:17:05.136Z,25.90
2019-02-17T15:19:38.553Z,24.85
2019-02-17T15:22:12.203Z,32.45
2019-02-17T15:24:46.403Z,38.58
2019-02-17T15:27:21.205Z,34.58
2019-02-17T15:29:55.354Z,30.50
2019-02-17T15:32:30.130Z,28.40
2019-02-17T15:35:03.323Z,33.70
2019-02-17T15:37:36.371Z,23.18
2019-02-17T15:40:13.464Z,23.62
2019-02-17T15:42:48.161Z,21.70
2019-02-17T15:45:21.458Z,21.52
2019-02-17T15:47:53.080Z,21.62
2019-02-17T15:50:24.991Z,20.17
2019-02-17T15:52:57.351Z,20.48
2019-02-17T15:55:29.560Z,18.67
2019-02-17T15:58:01.294Z,18.67
2019-02-17T16:00:34.060Z,19.07
2019-02-17T16:03:05.538Z,17.30
2019-02-17T16:05:36.964Z,15.48
2019-02-17T16:08:08.572Z,15.93
2019-02-17T16:10:40.301Z,17.15
2019-02-17T16:13:11.949Z,21.07
2019-02-17T16:15:43.332Z,23.90
2019-02-17T16:18:14.900Z,23.73
2019-02-17T16:20:47.020Z,21.50
2019-02-17T16:23:18.901Z,19.23
2019-02-17T16:25:50.700Z,20.60
2019-02-17T16:28:22.306Z,19.50
2019-02-17T16:30:53.683Z,25.65
2019-02-17T16:33:25.065Z,27.03
2019-02-17T16:35:56.453Z,25.90
2019-02-17T16:38:27.820Z,26.93
2019-02-17T16:41:00.877Z,32.00
2019-02-17T16:43:32.959Z,25.23
2019-02-17T16:46:05.663Z,23.83
2019-02-17T16:48:38.282Z,23.63
2019-02-17T16:51:10.186Z,25.37
2019-02-17T16:53:42.921Z,24.40
2019-02-17T16:56:16.534Z,25.27
2019-02-17T16:58:48.910Z,23.73
2019-02-17T17:01:22.527Z,24.50
2019-02-17T17:03:55.291Z,28.07
2019-02-17T17:06:28.360Z,27.60
2019-02-17T17:09:00.179Z,25.03
2019-02-17T17:11:32.533Z,23.43
2019-02-17T17:14:08.980Z,24.70
2019-02-17T17:16:38.825Z,26.43
2019-02-17T17:19:10.178Z,24.67
2019-02-17T17:21:41.802Z,23.73
2019-02-17T17:24:13.906Z,23.73
2019-02-17T17:26:46.394Z,25.33
2019-02-17T17:29:19.612Z,23.53
2019-02-17T17:31:52.171Z,25.43
2019-02-17T17:34:24.652Z,22.53
2019-02-17T17:36:57.658Z,411.53
2019-02-17T17:39:30.752Z,49.17
2019-02-17T17:42:02.929Z,65.00
2019-02-17T17:44:34.871Z,50.23
2019-02-17T17:47:06.312Z,74.37
2019-02-17T17:49:37.710Z,143.10
2019-02-17T17:52:10.479Z,39.97
2019-02-17T17:54:42.680Z,29.63
2019-02-17T17:57:15.321Z,35.47
2019-02-17T17:59:47.362Z,44.90
2019-02-17T18:02:18.840Z,169.40
2019-02-17T18:04:50.560Z,284.53
2019-02-17T18:07:23.003Z,216.63
2019-02-17T18:09:55.026Z,206.60
2019-02-17T18:12:27.039Z,241.17
2019-02-17T18:15:00.041Z,292.13
2019-02-17T18:17:32.548Z,276.67
2019-02-17T18:20:06.751Z,265.30
2019-02-17T18:22:38.026Z,309.40
2019-02-17T18:25:14.586Z,301.83
2019-02-17T18:27:46.983Z,277.97
2019-02-17T18:30:19.804Z,282.40
2019-02-17T18:32:52.351Z,208.20
2019-02-17T18:35:25.188Z,129.47
2019-02-17T18:37:59.159Z,87.17
2019-02-17T18:40:32.193Z,160.13
2019-02-17T18:43:04.560Z,85.40
2019-02-17T18:45:36.833Z,86.97
2019-02-17T18:48:11.381Z,109.50
2019-02-17T18:50:46.153Z,87.23
2019-02-17T18:53:20.034Z,72.57
2019-02-17T18:55:51.958Z,71.10
2019-02-17T18:58:25.161Z,78.23
2019-02-17T19:00:57.857Z,79.37
2019-02-17T19:03:29.303Z,61.53
2019-02-17T19:06:05.188Z,48.37
2019-02-17T19:08:38.872Z,33.07
2019-02-17T19:11:10.281Z,34.73
2019-02-17T19:13:41.548Z,37.27
2019-02-17T19:16:12.786Z,35.90
2019-02-17T19:18:44.055Z,37.73
2019-02-17T19:21:15.285Z,49.90
2019-02-17T19:23:46.572Z,41.03
2019-02-17T19:26:17.912Z,61.93
2019-02-17T19:28:49.288Z,49.40
2019-02-17T19:31:20.517Z,77.07
2019-02-17T19:33:53.128Z,52.30
2019-02-17T19:36:24.497Z,58.03
2019-02-17T19:38:56.798Z,49.07
2019-02-17T19:41:28.027Z,48.20
2019-02-17T19:43:59.233Z,41.43
2019-02-17T19:46:30.429Z,51.50
2019-02-17T19:49:01.790Z,66.13
2019-02-17T19:51:33.138Z,95.80
2019-02-17T19:54:04.453Z,109.93
2019-02-17T19:56:35.594Z,119.93
2019-02-17T19:59:06.974Z,199.27
2019-02-17T20:01:38.251Z,186.30
2019-02-17T20:04:11.102Z,98.93
2019-02-17T20:06:42.432Z,143.80
2019-02-17T20:09:15.697Z,165.60
2019-02-17T20:11:47.004Z,132.97
2019-02-17T20:14:18.744Z,103.30
2019-02-17T20:16:50.788Z,121.60
2019-02-17T20:19:22.113Z,200.20
2019-02-17T20:21:55.032Z,264.67
2019-02-17T20:24:27.090Z,373.33
2019-02-17T20:27:00.801Z,102.20
2019-02-17T20:29:31.976Z,153.00
2019-02-17T20:32:03.167Z,107.77
2019-02-17T20:34:34.443Z,96.43
2019-02-17T20:37:05.831Z,113.63
2019-02-17T20:39:37.147Z,78.03
2019-02-17T20:42:08.383Z,73.17
2019-02-17T20:44:39.580Z,82.47
2019-02-17T20:47:10.799Z,62.43
2019-02-17T20:49:42.207Z,45.00
2019-02-17T20:52:13.679Z,48.57
2019-02-17T20:54:46.224Z,54.90
2019-02-17T20:57:17.698Z,67.80
2019-02-17T20:59:48.891Z,53.13
2019-02-17T21:02:20.063Z,65.43
2019-02-17T21:04:51.355Z,64.80
2019-02-17T21:07:22.625Z,62.30
2019-02-17T21:09:54.045Z,47.03
2019-02-17T21:12:25.238Z,118.47
2019-02-17T21:14:56.427Z,130.07
2019-02-17T21:17:27.786Z,125.23
2019-02-17T21:19:59.080Z,142.50
2019-02-17T21:22:31.792Z,133.77
2019-02-17T21:25:03.210Z,175.60
2019-02-17T21:27:34.540Z,145.33
2019-02-17T21:30:18.748Z,140.03
2019-02-17T21:32:50.111Z,111.20
2019-02-17T21:35:21.438Z,87.10
2019-02-17T21:37:52.782Z,67.20
2019-02-17T21:40:24.198Z,87.60
2019-02-17T21:42:55.462Z,85.70
2019-02-17T21:45:26.863Z,96.97
2019-02-17T21:47:58.210Z,63.77
2019-02-17T21:50:29.783Z,69.30
2019-02-17T21:53:01.002Z,61.90
2019-02-17T21:55:32.323Z,55.40
2019-02-17T21:58:03.652Z,52.37
2019-02-17T22:00:34.899Z,47.50
2019-02-17T22:03:09.407Z,43.97
2019-02-17T22:05:41.852Z,50.67
2019-02-17T22:08:14.434Z,50.13
2019-02-17T22:10:45.873Z,76.80
2019-02-17T22:13:17.144Z,90.80
2019-02-17T22:15:48.450Z,62.70
2019-02-17T22:18:21.310Z,57.50
2019-02-17T22:20:57.879Z,49.37
2019-02-17T22:23:29.140Z,50.37
2019-02-17T22:26:01.521Z,43.73
2019-02-17T22:28:33.012Z,40.83
2019-02-17T22:31:26.861Z,38.30
2019-02-17T22:33:58.202Z,40.90
2019-02-17T22:36:43.500Z,40.43
2019-02-17T22:39:09.419Z,49.17
2019-02-17T22:41:40.930Z,48.90
2019-02-17T22:44:12.587Z,50.40
2019-02-17T22:46:43.918Z,61.03
2019-02-17T22:49:15.207Z,73.50
2019-02-17T22:51:46.976Z,62.33
2019-02-17T22:54:18.219Z,64.33
2019-02-17T22:56:49.620Z,49.67
2019-02-17T22:59:20.859Z,50.33
2019-02-17T23:01:56.670Z,46.60
2019-02-17T23:04:28.938Z,45.00
2019-02-17T23:07:00.238Z,43.60
2019-02-17T23:09:31.599Z,64.53
2019-02-17T23:12:03.161Z,59.77
2019-02-17T23:14:35.508Z,54.50
2019-02-17T23:17:06.926Z,66.40
2019-02-17T23:19:38.312Z,70.77
2019-02-17T23:22:09.718Z,66.80
2019-02-17T23:24:41.102Z,63.93
2019-02-17T23:27:13.513Z,67.57
2019-02-17T23:29:44.817Z,72.70
2019-02-17T23:32:18.642Z,79.83
2019-02-17T23:34:49.906Z,81.43
2019-02-17T23:37:21.212Z,81.20
2019-02-17T23:39:52.571Z,76.60
2019-02-17T23:42:23.969Z,77.03
2019-02-17T23:44:55.222Z,83.03
2019-02-17T23:47:26.669Z,62.27
2019-02-17T23:49:57.955Z,58.83
2019-02-17T23:52:29.401Z,69.70
2019-02-17T23:55:00.811Z,59.83
2019-02-17T23:57:32.777Z,61.83
